Time;durP1;ratioP1;P1;durP2;ratioP2;P2;SDS_P1;SDS_P2;PMS_P1;PMS_P2;Temp;Humidity;BMP_temperature;BMP_pressure;BME280_temperature;BME280_humidity;BME280_pressure;Samples;Min_cycle;Max_cycle;Signal;HPM_P1;HPM_P2
2022/05/05 00:01:50;;;;;;;;;;;23.30;44.60;;;;;;1540845;76;1940;-67
2022/05/05 00:03:52;;;;;;;;;;;23.40;44.50;;;;;;1524956;77;644;-66
2022/05/05 00:05:54;;;;;;;;;;;23.40;44.60;;;;;;1529313;77;582;-67
2022/05/05 00:07:56;;;;;;;;;;;23.30;44.60;;;;;;1528502;77;654;-67
2022/05/05 00:09:58;;;;;;;;;;;23.40;44.60;;;;;;1526945;77;705;-66
2022/05/05 00:14:31;;;;;;;;;;;23.30;44.70;;;;;;1527862;77;1667;-66
2022/05/05 00:16:32;;;;;;;;;;;23.40;44.70;;;;;;1531324;77;1554;-68
2022/05/05 00:18:34;;;;;;;;;;;23.30;44.70;;;;;;1529031;77;646;-65
2022/05/05 00:20:36;;;;;;;;;;;23.40;44.70;;;;;;1530820;76;1928;-67
2022/05/05 00:22:38;;;;;;;;;;;23.30;44.70;;;;;;1529984;77;765;-65
2022/05/05 00:24:40;;;;;;;;;;;23.30;44.70;;;;;;1519794;77;732;-66
2022/05/05 00:26:41;;;;;;;;;;;23.30;44.80;;;;;;1530393;77;783;-66
2022/05/05 00:28:43;;;;;;;;;;;23.30;44.70;;;;;;1532093;76;700;-66
2022/05/05 00:30:45;;;;;;;;;;;23.40;44.80;;;;;;1527614;76;1152;-67
2022/05/05 00:32:47;;;;;;;;;;;23.30;44.80;;;;;;1526146;77;756;-63
2022/05/05 00:34:49;;;;;;;;;;;23.20;44.70;;;;;;1530910;76;701;-65
2022/05/05 00:36:51;;;;;;;;;;;23.30;44.80;;;;;;1526342;77;675;-66
2022/05/05 00:38:53;;;;;;;;;;;23.30;44.80;;;;;;1517317;77;1359;-67
2022/05/05 00:40:54;;;;;;;;;;;23.30;44.80;;;;;;1517951;76;1948;-66
2022/05/05 00:42:58;;;;;;;;;;;23.40;44.80;;;;;;1532094;76;668;-69
2022/05/05 00:45:00;;;;;;;;;;;23.30;44.70;;;;;;1526959;76;706;-65
2022/05/05 00:47:02;;;;;;;;;;;23.30;44.70;;;;;;1526618;77;719;-65
2022/05/05 00:49:04;;;;;;;;;;;23.30;44.70;;;;;;1529975;76;682;-67
2022/05/05 00:51:06;;;;;;;;;;;23.30;44.70;;;;;;1518107;76;1130;-68
2022/05/05 00:53:08;;;;;;;;;;;23.20;44.60;;;;;;1521379;77;758;-65
2022/05/05 00:55:10;;;;;;;;;;;23.30;44.70;;;;;;1522908;76;577;-67
2022/05/05 00:57:12;;;;;;;;;;;23.30;44.70;;;;;;1529039;76;1256;-66
2022/05/05 00:59:14;;;;;;;;;;;23.30;44.70;;;;;;1526272;77;699;-65
2022/05/05 01:01:19;;;;;;;;;;;23.30;44.60;;;;;;1513954;77;1961;-68
2022/05/05 01:03:21;;;;;;;;;;;23.30;44.60;;;;;;1527586;77;696;-66
2022/05/05 01:05:24;;;;;;;;;;;23.40;44.60;;;;;;1530045;77;711;-66
2022/05/05 01:07:26;;;;;;;;;;;23.30;44.50;;;;;;1531153;77;692;-66
2022/05/05 01:09:28;;;;;;;;;;;23.40;44.50;;;;;;1518392;77;666;-65
2022/05/05 01:11:30;;;;;;;;;;;23.30;44.50;;;;;;1545782;70;2087;-62
2022/05/05 01:13:32;;;;;;;;;;;23.30;44.50;;;;;;1584589;74;702;-62
2022/05/05 01:15:34;;;;;;;;;;;23.30;44.50;;;;;;1589810;74;723;-63
2022/05/05 01:17:37;;;;;;;;;;;23.30;44.50;;;;;;1582929;74;692;-64
2022/05/05 01:19:39;;;;;;;;;;;23.30;44.50;;;;;;1586972;74;772;-62
2022/05/05 01:21:41;;;;;;;;;;;23.30;44.50;;;;;;1580362;74;1956;-61
2022/05/05 01:23:42;;;;;;;;;;;23.30;44.50;;;;;;1577498;74;762;-63
2022/05/05 01:28:12;;;;;;;;;;;23.40;44.50;;;;;;1584887;74;1655;-64
2022/05/05 01:30:13;;;;;;;;;;;23.30;44.50;;;;;;1585465;74;701;-64
2022/05/05 01:32:15;;;;;;;;;;;23.30;44.40;;;;;;1571661;74;1129;-64
2022/05/05 01:34:18;;;;;;;;;;;23.30;44.50;;;;;;1586386;74;819;-64
2022/05/05 01:36:20;;;;;;;;;;;23.30;44.50;;;;;;1576683;74;1757;-64
2022/05/05 01:38:25;;;;;;;;;;;23.30;44.50;;;;;;1598287;74;759;-64
2022/05/05 01:40:27;;;;;;;;;;;23.30;44.50;;;;;;1595004;74;703;-64
2022/05/05 01:42:29;;;;;;;;;;;23.30;44.40;;;;;;1591548;74;1933;-63
2022/05/05 01:44:31;;;;;;;;;;;23.30;44.40;;;;;;1572015;74;635;-63
2022/05/05 01:46:33;;;;;;;;;;;23.30;44.40;;;;;;1602623;74;696;-64
2022/05/05 01:48:35;;;;;;;;;;;23.30;44.40;;;;;;1576044;74;671;-63
2022/05/05 01:50:37;;;;;;;;;;;23.30;44.40;;;;;;1586847;74;729;-63
2022/05/05 01:52:39;;;;;;;;;;;23.40;44.40;;;;;;1585726;73;1097;-64
2022/05/05 01:54:40;;;;;;;;;;;23.40;44.40;;;;;;1569274;74;1500;-61
2022/05/05 01:56:42;;;;;;;;;;;23.30;44.40;;;;;;1596133;74;827;-64
2022/05/05 01:58:44;;;;;;;;;;;23.30;44.30;;;;;;1583003;74;703;-63
2022/05/05 02:00:46;;;;;;;;;;;23.30;44.30;;;;;;1589950;74;822;-62
2022/05/05 02:02:48;;;;;;;;;;;23.30;44.40;;;;;;1584164;74;1902;-63
2022/05/05 02:04:50;;;;;;;;;;;23.40;44.30;;;;;;1582898;74;754;-64
2022/05/05 02:06:52;;;;;;;;;;;23.30;44.30;;;;;;1592547;74;625;-62
2022/05/05 02:08:56;;;;;;;;;;;23.30;44.30;;;;;;1581269;74;726;-62
2022/05/05 02:10:57;;;;;;;;;;;23.30;44.40;;;;;;1587345;74;1638;-63
2022/05/05 02:13:00;;;;;;;;;;;23.30;44.40;;;;;;1600757;73;1109;-63
2022/05/05 02:15:06;;;;;;;;;;;23.30;44.30;;;;;;1583272;74;752;-62
2022/05/05 02:17:06;;;;;;;;;;;23.30;44.30;;;;;;1574140;74;1394;-62
2022/05/05 02:19:08;;;;;;;;;;;23.30;44.40;;;;;;1594040;74;697;-62
2022/05/05 02:21:10;;;;;;;;;;;23.30;44.40;;;;;;1580161;74;1937;-63
2022/05/05 02:23:12;;;;;;;;;;;23.30;44.40;;;;;;1578550;74;751;-64
2022/05/05 02:25:14;;;;;;;;;;;23.30;44.40;;;;;;1591388;74;797;-63
2022/05/05 02:27:16;;;;;;;;;;;23.30;44.40;;;;;;1590491;74;698;-65
2022/05/05 02:29:18;;;;;;;;;;;23.30;44.50;;;;;;1573774;74;673;-63
2022/05/05 02:31:21;;;;;;;;;;;23.30;44.40;;;;;;1577826;73;1566;-64
2022/05/05 02:33:22;;;;;;;;;;;23.40;44.40;;;;;;1573204;74;794;-63
2022/05/05 02:35:24;;;;;;;;;;;23.40;44.40;;;;;;1572306;74;722;-64
2022/05/05 02:39:46;;;;;;;;;;;23.30;44.40;;;;;;1589030;74;1620;-62
2022/05/05 02:41:48;;;;;;;;;;;23.30;44.30;;;;;;1577225;74;1953;-62
2022/05/05 02:43:50;;;;;;;;;;;23.40;44.30;;;;;;1589672;74;767;-62
2022/05/05 02:45:52;;;;;;;;;;;23.40;44.30;;;;;;1590662;74;750;-62
2022/05/05 02:47:54;;;;;;;;;;;23.50;44.30;;;;;;1592699;74;788;-62
2022/05/05 02:49:56;;;;;;;;;;;23.50;44.30;;;;;;1590031;74;1495;-62
2022/05/05 02:51:58;;;;;;;;;;;23.50;44.40;;;;;;1583005;74;1136;-62
2022/05/05 02:56:20;;;;;;;;;;;23.60;44.20;;;;;;1588747;74;752;-62
2022/05/05 02:58:22;;;;;;;;;;;23.60;44.10;;;;;;1582349;74;662;-62
2022/05/05 03:00:24;;;;;;;;;;;23.60;44.10;;;;;;1590883;74;706;-61
2022/05/05 03:02:25;;;;;;;;;;;23.60;44.10;;;;;;1579927;74;1943;-63
2022/05/05 03:04:27;;;;;;;;;;;23.60;44.10;;;;;;1579355;74;659;-62
2022/05/05 03:06:29;;;;;;;;;;;23.70;44.10;;;;;;1591093;74;659;-63
2022/05/05 03:08:31;;;;;;;;;;;23.70;44.00;;;;;;1584470;74;678;-64
2022/05/05 03:10:33;;;;;;;;;;;23.70;44.00;;;;;;1586490;74;749;-62
2022/05/05 03:12:35;;;;;;;;;;;23.70;44.00;;;;;;1570766;74;1116;-61
2022/05/05 03:14:37;;;;;;;;;;;23.80;43.90;;;;;;1589768;74;699;-61
2022/05/05 03:16:39;;;;;;;;;;;23.80;43.80;;;;;;1591219;74;679;-62
2022/05/05 03:18:42;;;;;;;;;;;23.80;43.80;;;;;;1580244;74;673;-62
2022/05/05 03:20:44;;;;;;;;;;;23.80;43.90;;;;;;1588927;74;744;-62
2022/05/05 03:22:46;;;;;;;;;;;23.70;43.80;;;;;;1574594;74;1956;-65
2022/05/05 03:24:48;;;;;;;;;;;23.70;43.80;;;;;;1590766;74;931;-62
2022/05/05 03:26:49;;;;;;;;;;;23.70;43.80;;;;;;1583045;74;710;-71
2022/05/05 03:28:51;;;;;;;;;;;23.70;43.90;;;;;;1584763;74;1855;-67
2022/05/05 03:30:53;;;;;;;;;;;23.70;43.90;;;;;;1583247;74;728;-65
2022/05/05 03:32:55;;;;;;;;;;;23.60;43.80;;;;;;1581661;74;1134;-65
2022/05/05 03:34:57;;;;;;;;;;;23.60;43.90;;;;;;1572143;74;736;-65
2022/05/05 03:36:59;;;;;;;;;;;23.60;43.90;;;;;;1576093;74;667;-71
2022/05/05 03:39:01;;;;;;;;;;;23.60;43.90;;;;;;1580623;74;679;-68
2022/05/05 03:41:03;;;;;;;;;;;23.60;44.00;;;;;;1576041;74;714;-68
2022/05/05 03:43:05;;;;;;;;;;;23.60;43.90;;;;;;1586013;74;1942;-68
2022/05/05 03:45:07;;;;;;;;;;;23.60;44.00;;;;;;1588009;74;694;-66
2022/05/05 03:47:09;;;;;;;;;;;23.60;44.00;;;;;;1591229;74;1268;-65
2022/05/05 03:49:11;;;;;;;;;;;23.60;44.10;;;;;;1588658;74;804;-67
2022/05/05 03:51:12;;;;;;;;;;;23.60;44.10;;;;;;1583197;73;1149;-68
2022/05/05 03:53:14;;;;;;;;;;;23.60;44.10;;;;;;1587563;74;668;-67
2022/05/05 03:55:16;;;;;;;;;;;23.50;44.10;;;;;;1579819;74;699;-69
2022/05/05 03:57:18;;;;;;;;;;;23.60;44.20;;;;;;1598486;74;731;-67
2022/05/05 03:59:20;;;;;;;;;;;23.60;44.20;;;;;;1578155;74;673;-69
2022/05/05 04:01:22;;;;;;;;;;;23.60;44.20;;;;;;1598468;73;1130;-68
2022/05/05 04:03:34;;;;;;;;;;;23.60;44.20;;;;;;1586484;74;1933;-69
2022/05/05 04:05:36;;;;;;;;;;;23.50;44.20;;;;;;1578844;74;687;-68
2022/05/05 04:07:38;;;;;;;;;;;23.50;44.30;;;;;;1580451;74;768;-68
2022/05/05 04:09:40;;;;;;;;;;;23.50;44.30;;;;;;1575697;74;702;-68
2022/05/05 04:11:41;;;;;;;;;;;23.60;44.20;;;;;;1571029;74;1158;-69
2022/05/05 04:13:43;;;;;;;;;;;23.60;44.30;;;;;;1581552;74;791;-68
2022/05/05 04:15:46;;;;;;;;;;;23.60;44.30;;;;;;1571570;74;660;-68
2022/05/05 04:17:48;;;;;;;;;;;23.50;44.30;;;;;;1570197;74;721;-68
2022/05/05 04:19:50;;;;;;;;;;;23.60;44.30;;;;;;1581035;74;730;-68
2022/05/05 04:21:51;;;;;;;;;;;23.60;44.40;;;;;;1574276;74;1929;-67
2022/05/05 04:23:53;;;;;;;;;;;23.50;44.30;;;;;;1584766;74;1542;-68
2022/05/05 04:25:55;;;;;;;;;;;23.60;44.40;;;;;;1574312;74;665;-67
2022/05/05 04:27:57;;;;;;;;;;;23.40;44.30;;;;;;1578066;74;706;-66
2022/05/05 04:29:59;;;;;;;;;;;23.50;44.40;;;;;;1574339;74;689;-68
2022/05/05 04:32:01;;;;;;;;;;;23.50;44.40;;;;;;1578688;74;1085;-65
2022/05/05 04:34:03;;;;;;;;;;;23.50;44.40;;;;;;1579714;74;710;-65
2022/05/05 04:36:06;;;;;;;;;;;23.50;44.50;;;;;;1578985;74;718;-63
2022/05/05 04:38:08;;;;;;;;;;;23.60;44.60;;;;;;1561257;74;794;-62
2022/05/05 04:40:10;;;;;;;;;;;23.60;44.40;;;;;;1583579;74;660;-65
2022/05/05 04:42:13;;;;;;;;;;;23.60;44.40;;;;;;1579446;74;1925;-65
2022/05/05 04:44:14;;;;;;;;;;;23.60;44.30;;;;;;1598981;74;744;-66
2022/05/05 04:46:16;;;;;;;;;;;23.70;44.40;;;;;;1580942;74;799;-66
2022/05/05 04:48:18;;;;;;;;;;;23.60;44.20;;;;;;1578535;74;666;-65
2022/05/05 04:50:20;;;;;;;;;;;23.70;44.20;;;;;;1580509;74;731;-65
2022/05/05 04:52:22;;;;;;;;;;;23.70;44.30;;;;;;1583007;74;1133;-66
2022/05/05 04:54:24;;;;;;;;;;;23.70;44.40;;;;;;1594014;74;718;-66
2022/05/05 04:56:26;;;;;;;;;;;23.70;44.30;;;;;;1588701;74;674;-65
2022/05/05 04:58:27;;;;;;;;;;;23.70;44.20;;;;;;1583650;74;722;-65
2022/05/05 05:00:30;;;;;;;;;;;23.70;44.20;;;;;;1580684;74;678;-66
2022/05/05 05:02:31;;;;;;;;;;;23.70;44.40;;;;;;1597164;73;1910;-67
2022/05/05 05:04:33;;;;;;;;;;;23.60;44.20;;;;;;1584908;74;743;-67
2022/05/05 05:06:35;;;;;;;;;;;23.60;44.20;;;;;;1594089;74;722;-67
2022/05/05 05:08:38;;;;;;;;;;;23.60;44.30;;;;;;1590285;74;731;-66
2022/05/05 05:10:41;;;;;;;;;;;23.60;44.30;;;;;;1583231;74;629;-64
2022/05/05 05:12:43;;;;;;;;;;;23.60;44.20;;;;;;1592391;74;1810;-65
2022/05/05 05:14:45;;;;;;;;;;;23.60;44.00;;;;;;1580507;74;816;-64
2022/05/05 05:16:47;;;;;;;;;;;23.60;44.00;;;;;;1577904;73;801;-62
2022/05/05 05:18:53;;;;;;;;;;;23.70;44.20;;;;;;1581701;74;723;-64
2022/05/05 05:20:53;;;;;;;;;;;23.70;44.20;;;;;;1576053;74;1600;-64
2022/05/05 05:22:54;;;;;;;;;;;23.60;44.10;;;;;;1571699;74;1927;-64
2022/05/05 05:24:56;;;;;;;;;;;23.70;44.20;;;;;;1576750;74;626;-65
2022/05/05 05:26:58;;;;;;;;;;;23.70;44.30;;;;;;1578792;74;686;-63
2022/05/05 05:29:00;;;;;;;;;;;23.60;44.20;;;;;;1593091;74;811;-65
2022/05/05 05:31:02;;;;;;;;;;;23.70;44.40;;;;;;1586618;74;687;-65
2022/05/05 05:33:04;;;;;;;;;;;23.70;44.20;;;;;;1569878;74;1126;-65
2022/05/05 05:35:06;;;;;;;;;;;23.70;44.20;;;;;;1588801;74;699;-66
2022/05/05 05:37:08;;;;;;;;;;;23.70;44.50;;;;;;1581288;74;678;-65
2022/05/05 05:39:10;;;;;;;;;;;23.50;44.60;;;;;;1588012;74;1569;-65
2022/05/05 05:41:11;;;;;;;;;;;23.50;44.80;;;;;;1583690;74;1168;-64
2022/05/05 05:43:13;;;;;;;;;;;23.40;44.70;;;;;;1580329;74;1902;-64
2022/05/05 05:45:15;;;;;;;;;;;23.40;44.90;;;;;;1590192;74;682;-64
2022/05/05 05:47:17;;;;;;;;;;;23.40;44.90;;;;;;1587994;74;643;-64
2022/05/05 05:49:19;;;;;;;;;;;23.30;45.00;;;;;;1581803;74;611;-66
2022/05/05 05:51:21;;;;;;;;;;;23.30;45.00;;;;;;1584933;74;1189;-67
2022/05/05 05:53:23;;;;;;;;;;;23.50;44.70;;;;;;1590971;74;699;-64
2022/05/05 05:55:25;;;;;;;;;;;23.60;44.50;;;;;;1588673;74;680;-64
2022/05/05 05:57:27;;;;;;;;;;;23.50;44.60;;;;;;1601901;74;700;-64
2022/05/05 05:59:29;;;;;;;;;;;23.50;44.70;;;;;;1582360;74;683;-64
2022/05/05 06:03:56;;;;;;;;;;;23.60;44.60;;;;;;1586970;74;1897;-65
2022/05/05 06:05:58;;;;;;;;;;;23.50;44.60;;;;;;1590525;74;720;-63
2022/05/05 06:08:00;;;;;;;;;;;23.50;44.70;;;;;;1586062;74;686;-63
2022/05/05 06:10:03;;;;;;;;;;;23.40;44.60;;;;;;1589424;74;796;-64
2022/05/05 06:12:05;;;;;;;;;;;23.50;44.80;;;;;;1578026;74;1120;-64
2022/05/05 06:14:07;;;;;;;;;;;23.50;44.70;;;;;;1585266;74;823;-63
2022/05/05 06:16:12;;;;;;;;;;;23.40;44.60;;;;;;1583699;74;1520;-64
2022/05/05 06:18:14;;;;;;;;;;;23.40;44.60;;;;;;1580971;74;882;-64
2022/05/05 06:20:16;;;;;;;;;;;23.40;44.50;;;;;;1594522;74;1040;-63
2022/05/05 06:22:18;;;;;;;;;;;23.50;44.50;;;;;;1596791;73;1114;-65
2022/05/05 06:24:20;;;;;;;;;;;23.50;44.50;;;;;;1582094;73;1936;-63
2022/05/05 06:26:23;;;;;;;;;;;23.50;44.40;;;;;;1581233;74;735;-65
2022/05/05 06:28:25;;;;;;;;;;;23.50;44.40;;;;;;1592193;74;611;-64
2022/05/05 06:30:27;;;;;;;;;;;23.50;44.40;;;;;;1578506;74;654;-66
2022/05/05 06:32:29;;;;;;;;;;;23.50;44.50;;;;;;1592145;74;1123;-63
2022/05/05 06:34:30;;;;;;;;;;;23.50;44.50;;;;;;1593708;74;1506;-65
2022/05/05 06:36:32;;;;;;;;;;;23.40;44.40;;;;;;1587613;74;660;-68
2022/05/05 06:38:34;;;;;;;;;;;23.50;44.70;;;;;;1583403;74;678;-66
2022/05/05 06:40:36;;;;;;;;;;;23.60;44.40;;;;;;1593191;74;674;-67
2022/05/05 06:42:38;;;;;;;;;;;23.70;44.30;;;;;;1580567;74;1142;-67
2022/05/05 06:44:40;;;;;;;;;;;23.70;44.10;;;;;;1601952;74;1944;-65
2022/05/05 06:46:42;;;;;;;;;;;23.80;43.90;;;;;;1592728;74;668;-67
2022/05/05 06:48:44;;;;;;;;;;;23.80;43.90;;;;;;1588717;74;668;-67
2022/05/05 06:50:46;;;;;;;;;;;24.00;43.30;;;;;;1589058;74;733;-72
2022/05/05 06:52:48;;;;;;;;;;;23.90;42.50;;;;;;1591657;73;1070;-70
2022/05/05 06:54:50;;;;;;;;;;;24.00;42.50;;;;;;1586624;74;707;-77
2022/05/05 06:56:52;;;;;;;;;;;24.00;42.60;;;;;;1575372;74;703;-73
2022/05/05 06:58:54;;;;;;;;;;;24.00;42.50;;;;;;1583990;74;747;-65
2022/05/05 07:03:15;;;;;;;;;;;23.90;42.30;;;;;;1576065;74;1892;-64
2022/05/05 07:05:23;;;;;;;;;;;23.90;42.30;;;;;;1574541;74;746;-65
2022/05/05 07:07:25;;;;;;;;;;;23.90;42.30;;;;;;1581039;74;599;-64
2022/05/05 07:11:47;;;;;;;;;;;23.90;42.30;;;;;;1579263;72;2055;-65
2022/05/05 07:13:49;;;;;;;;;;;24.00;42.40;;;;;;1576616;75;1681;-65
2022/05/05 07:15:51;;;;;;;;;;;24.00;42.00;;;;;;1577389;75;716;-67
2022/05/05 07:17:53;;;;;;;;;;;23.90;42.00;;;;;;1573288;75;704;-65
2022/05/05 07:19:55;;;;;;;;;;;24.00;42.00;;;;;;1564745;75;679;-64
2022/05/05 07:21:56;;;;;;;;;;;24.00;42.00;;;;;;1556776;75;1196;-64
2022/05/05 07:23:58;;;;;;;;;;;24.00;41.80;;;;;;1545376;77;1919;-67
2022/05/05 07:26:00;;;;;;;;;;;24.00;41.80;;;;;;1534930;77;720;-65
2022/05/05 07:28:02;;;;;;;;;;;24.00;41.90;;;;;;1539172;77;733;-63
2022/05/05 07:30:05;;;;;;;;;;;24.00;41.80;;;;;;1537785;77;660;-66
2022/05/05 07:32:07;;;;;;;;;;;24.00;41.80;;;;;;1527548;77;1507;-67
2022/05/05 07:34:09;;;;;;;;;;;24.00;41.80;;;;;;1525608;77;917;-64
2022/05/05 07:36:11;;;;;;;;;;;24.00;41.60;;;;;;1528603;77;677;-64
2022/05/05 07:38:13;;;;;;;;;;;24.00;41.70;;;;;;1528155;77;646;-64
2022/05/05 07:40:15;;;;;;;;;;;24.00;41.60;;;;;;1540423;77;660;-63
2022/05/05 07:42:17;;;;;;;;;;;24.00;41.60;;;;;;1542854;77;1283;-64
2022/05/05 07:44:19;;;;;;;;;;;24.00;41.60;;;;;;1537034;77;1919;-65
2022/05/05 07:46:20;;;;;;;;;;;24.00;41.60;;;;;;1524400;77;775;-63
2022/05/05 07:48:22;;;;;;;;;;;24.00;41.60;;;;;;1527471;78;763;-65
2022/05/05 07:50:24;;;;;;;;;;;24.10;41.30;;;;;;1535291;75;715;-65
2022/05/05 07:52:26;;;;;;;;;;;24.00;40.90;;;;;;1541082;77;1126;-64
2022/05/05 07:54:43;;;;;;;;;;;24.00;40.70;;;;;;1549147;77;730;-65
2022/05/05 07:56:43;;;;;;;;;;;24.10;40.90;;;;;;1538647;77;1683;-63
2022/05/05 07:58:45;;;;;;;;;;;24.00;40.90;;;;;;1535098;77;761;-65
2022/05/05 08:00:48;;;;;;;;;;;24.10;40.90;;;;;;1536799;77;739;-66
2022/05/05 08:02:50;;;;;;;;;;;24.10;40.60;;;;;;1529430;77;1173;-64
2022/05/05 08:04:53;;;;;;;;;;;24.00;40.50;;;;;;1540711;77;1897;-64
2022/05/05 08:06:55;;;;;;;;;;;24.20;40.40;;;;;;1542805;77;688;-64
2022/05/05 08:08:57;;;;;;;;;;;24.10;40.50;;;;;;1541175;77;1345;-63
2022/05/05 08:10:58;;;;;;;;;;;24.10;40.60;;;;;;1546749;77;751;-65
2022/05/05 08:13:00;;;;;;;;;;;24.10;40.70;;;;;;1547813;77;1074;-64
2022/05/05 08:15:02;;;;;;;;;;;24.10;40.80;;;;;;1536091;77;684;-63
2022/05/05 08:17:04;;;;;;;;;;;24.10;40.80;;;;;;1524580;77;769;-64
2022/05/05 08:19:06;;;;;;;;;;;24.20;40.90;;;;;;1524130;77;776;-64
2022/05/05 08:21:10;;;;;;;;;;;24.20;40.70;;;;;;1522014;77;681;-65
2022/05/05 08:23:12;;;;;;;;;;;24.20;40.60;;;;;;1527781;77;1165;-63
2022/05/05 08:29:54;;;;;;;;;;;24.20;40.40;;;;;;1536486;77;1623;-64
2022/05/05 08:31:57;;;;;;;;;;;24.20;40.30;;;;;;1537686;77;1139;-64
2022/05/05 08:33:59;;;;;;;;;;;24.20;40.20;;;;;;1544933;77;754;-65
2022/05/05 08:36:01;;;;;;;;;;;24.20;40.20;;;;;;1529368;77;702;-66
2022/05/05 08:38:03;;;;;;;;;;;24.10;40.10;;;;;;1521672;77;754;-66
2022/05/05 08:40:05;;;;;;;;;;;24.20;40.10;;;;;;1524563;77;632;-65
2022/05/05 08:42:07;;;;;;;;;;;24.00;39.90;;;;;;1527647;77;1183;-65
2022/05/05 08:44:09;;;;;;;;;;;24.10;39.90;;;;;;1527213;77;1935;-66
2022/05/05 08:46:13;;;;;;;;;;;24.00;39.80;;;;;;1528024;77;743;-65
2022/05/05 08:48:16;;;;;;;;;;;24.00;39.90;;;;;;1519085;77;819;-65
2022/05/05 08:50:18;;;;;;;;;;;24.00;39.70;;;;;;1526484;77;689;-66
2022/05/05 08:52:21;;;;;;;;;;;24.00;39.80;;;;;;1531347;77;1202;-65
2022/05/05 08:54:25;;;;;;;;;;;23.90;39.80;;;;;;1548841;77;698;-65
2022/05/05 08:56:27;;;;;;;;;;;23.90;40.00;;;;;;1548217;77;668;-65
2022/05/05 08:58:29;;;;;;;;;;;23.90;40.00;;;;;;1549334;77;693;-66
2022/05/05 09:00:31;;;;;;;;;;;23.90;40.00;;;;;;1522598;77;738;-66
2022/05/05 09:02:33;;;;;;;;;;;23.90;40.00;;;;;;1541981;77;1135;-66
2022/05/05 09:04:35;;;;;;;;;;;23.90;40.00;;;;;;1527794;77;1981;-66
2022/05/05 09:06:46;;;;;;;;;;;23.90;39.80;;;;;;1535331;77;596;-67
2022/05/05 09:08:48;;;;;;;;;;;23.80;39.80;;;;;;1518062;77;698;-66
2022/05/05 09:10:50;;;;;;;;;;;23.80;39.80;;;;;;1526948;77;701;-67
2022/05/05 09:12:58;;;;;;;;;;;23.70;39.90;;;;;;1527779;77;1153;-67
2022/05/05 09:15:00;;;;;;;;;;;23.80;39.90;;;;;;1529182;77;691;-66
2022/05/05 09:17:10;;;;;;;;;;;23.80;39.90;;;;;;1526555;77;640;-68
2022/05/05 09:19:12;;;;;;;;;;;23.70;39.80;;;;;;1538917;77;1480;-67
2022/05/05 09:21:15;;;;;;;;;;;23.70;39.40;;;;;;1523122;77;757;-65
2022/05/05 09:23:30;;;;;;;;;;;23.70;39.40;;;;;;1538947;77;1477;-67
2022/05/05 09:25:35;;;;;;;;;;;23.70;39.50;;;;;;1525500;77;1952;-68
2022/05/05 09:27:37;;;;;;;;;;;23.70;39.70;;;;;;1538247;77;1441;-66
2022/05/05 09:29:39;;;;;;;;;;;23.70;39.70;;;;;;1540726;77;688;-65
2022/05/05 09:31:41;;;;;;;;;;;23.70;38.80;;;;;;1527290;77;1151;-66
2022/05/05 09:33:44;;;;;;;;;;;23.60;38.40;;;;;;1534883;77;780;-66
2022/05/05 09:35:47;;;;;;;;;;;23.50;39.00;;;;;;1538669;77;1048;-68
2022/05/05 09:37:50;;;;;;;;;;;23.50;39.00;;;;;;1538237;77;707;-66
2022/05/05 09:39:59;;;;;;;;;;;23.50;39.00;;;;;;1531104;77;650;-66
2022/05/05 09:42:00;;;;;;;;;;;23.50;38.20;;;;;;1530513;77;1161;-66
2022/05/05 09:44:13;;;;;;;;;;;23.30;37.90;;;;;;1529052;77;1955;-65
2022/05/05 09:46:30;;;;;;;;;;;23.30;38.50;;;;;;1528496;77;1806;-64
2022/05/05 09:48:29;;;;;;;;;;;23.30;38.90;;;;;;1535731;77;1434;-67
2022/05/05 09:50:31;;;;;;;;;;;23.30;38.70;;;;;;1529716;77;703;-65
2022/05/05 09:59:29;;;;;;;;;;;23.40;39.10;;;;;;1523839;77;1628;-64
2022/05/05 10:01:31;;;;;;;;;;;23.50;39.30;;;;;;1522895;77;1835;-63
2022/05/05 10:05:54;;;;;;;;;;;23.50;39.50;;;;;;1536349;77;1794;-63
2022/05/05 10:07:56;;;;;;;;;;;23.50;39.30;;;;;;1539397;77;821;-64
2022/05/05 10:09:57;;;;;;;;;;;23.50;38.70;;;;;;1534281;77;770;-64
2022/05/05 10:11:59;;;;;;;;;;;23.40;38.90;;;;;;1543043;77;1189;-64
2022/05/05 10:14:02;;;;;;;;;;;23.30;38.60;;;;;;1543175;77;796;-65
2022/05/05 10:16:04;;;;;;;;;;;23.40;38.70;;;;;;1548809;77;772;-63
2022/05/05 10:18:06;;;;;;;;;;;23.40;39.20;;;;;;1549756;77;674;-62
2022/05/05 10:20:11;;;;;;;;;;;23.20;39.00;;;;;;1543390;77;1539;-63
2022/05/05 10:22:13;;;;;;;;;;;23.20;39.30;;;;;;1543739;77;1662;-64
2022/05/05 10:24:20;;;;;;;;;;;23.30;39.60;;;;;;1549541;77;1919;-62
2022/05/05 10:26:22;;;;;;;;;;;23.30;39.70;;;;;;1542515;77;1797;-64
2022/05/05 10:28:40;;;;;;;;;;;23.40;40.20;;;;;;1528704;77;777;-62
2022/05/05 10:30:42;;;;;;;;;;;23.40;39.60;;;;;;1523929;77;667;-62
2022/05/05 10:32:44;;;;;;;;;;;23.40;40.20;;;;;;1527839;77;1144;-65
2022/05/05 10:34:53;;;;;;;;;;;23.40;40.40;;;;;;1526216;77;741;-66
2022/05/05 10:36:58;;;;;;;;;;;23.40;40.80;;;;;;1541764;77;733;-64
2022/05/05 10:39:02;;;;;;;;;;;23.40;40.90;;;;;;1537679;77;748;-63
2022/05/05 10:41:06;;;;;;;;;;;23.40;41.00;;;;;;1525249;77;1847;-63
2022/05/05 10:43:09;;;;;;;;;;;23.40;41.10;;;;;;1522893;77;1524;-63
2022/05/05 10:45:12;;;;;;;;;;;23.40;40.90;;;;;;1526147;77;1930;-63
2022/05/05 10:47:14;;;;;;;;;;;23.40;40.50;;;;;;1524615;77;680;-64
2022/05/05 10:49:41;;;;;;;;;;;23.40;40.10;;;;;;1527371;77;745;-63
2022/05/05 10:52:02;;;;;;;;;;;23.40;40.20;;;;;;1527959;77;1179;-64
2022/05/05 10:54:24;;;;;;;;;;;23.40;40.30;;;;;;1528893;76;710;-61
2022/05/05 10:56:30;;;;;;;;;;;23.40;39.40;;;;;;1530165;77;769;-61
2022/05/05 10:58:50;;;;;;;;;;;23.30;39.50;;;;;;1524558;77;1392;-65
2022/05/05 11:00:53;;;;;;;;;;;23.20;39.80;;;;;;1539829;77;685;-62
2022/05/05 11:03:03;;;;;;;;;;;23.30;40.00;;;;;;1517361;78;1286;-63
2022/05/05 11:05:27;;;;;;;;;;;23.40;40.10;;;;;;1531216;77;1909;-62
2022/05/05 11:07:36;;;;;;;;;;;23.30;40.30;;;;;;1530404;77;675;-62
2022/05/05 11:09:33;;;;;;;;;;;23.40;40.50;;;;;;1541657;77;1585;-65
2022/05/05 11:11:41;;;;;;;;;;;23.40;40.10;;;;;;1531649;77;1157;-65
2022/05/05 11:13:43;;;;;;;;;;;23.40;40.00;;;;;;1530588;77;742;-63
2022/05/05 11:22:46;;;;;;;;;;;23.40;40.70;;;;;;1541113;77;1602;-67
2022/05/05 11:24:48;;;;;;;;;;;23.40;40.80;;;;;;1533132;77;1935;-63
2022/05/05 11:26:50;;;;;;;;;;;23.40;40.80;;;;;;1539682;77;714;-64
2022/05/05 11:28:52;;;;;;;;;;;23.50;41.00;;;;;;1540451;77;706;-62
2022/05/05 11:30:54;;;;;;;;;;;23.40;40.90;;;;;;1535227;77;802;-63
2022/05/05 11:32:58;;;;;;;;;;;23.40;41.00;;;;;;1543502;77;1142;-64
2022/05/05 11:35:00;;;;;;;;;;;23.40;41.00;;;;;;1544992;77;1051;-62
2022/05/05 11:37:02;;;;;;;;;;;23.50;41.20;;;;;;1540754;77;722;-63
2022/05/05 11:39:06;;;;;;;;;;;23.40;41.10;;;;;;1538364;77;912;-64
2022/05/05 11:41:07;;;;;;;;;;;23.50;41.30;;;;;;1536124;77;1658;-64
2022/05/05 11:45:29;;;;;;;;;;;23.50;41.30;;;;;;1530033;77;1899;-64
2022/05/05 11:47:31;;;;;;;;;;;23.50;41.40;;;;;;1538089;77;692;-63
2022/05/05 11:49:32;;;;;;;;;;;23.50;41.30;;;;;;1526712;77;715;-67
2022/05/05 11:51:34;;;;;;;;;;;23.50;41.30;;;;;;1514504;77;1192;-66
2022/05/05 11:53:36;;;;;;;;;;;23.50;41.40;;;;;;1542180;77;1570;-63
2022/05/05 11:55:39;;;;;;;;;;;23.50;41.30;;;;;;1532895;77;751;-63
2022/05/05 11:57:41;;;;;;;;;;;23.60;41.30;;;;;;1539643;77;800;-63
2022/05/05 12:02:04;;;;;;;;;;;23.60;41.50;;;;;;1504935;78;1648;-68
2022/05/05 12:04:08;;;;;;;;;;;23.60;41.50;;;;;;1536491;77;758;-66
2022/05/05 12:06:09;;;;;;;;;;;23.60;41.60;;;;;;1543267;77;1904;-72
2022/05/05 12:08:11;;;;;;;;;;;23.60;41.60;;;;;;1528346;76;723;-66
2022/05/05 12:10:15;;;;;;;;;;;23.60;41.50;;;;;;1533765;77;703;-68
2022/05/05 12:12:18;;;;;;;;;;;23.60;41.60;;;;;;1544551;77;1781;-67
2022/05/05 12:14:22;;;;;;;;;;;23.60;41.60;;;;;;1545161;77;711;-67
2022/05/05 12:16:24;;;;;;;;;;;23.60;41.60;;;;;;1527318;77;686;-70
2022/05/05 12:18:26;;;;;;;;;;;23.60;41.60;;;;;;1494814;79;1018;-66
2022/05/05 12:20:28;;;;;;;;;;;23.60;41.50;;;;;;1515724;78;616;-66
2022/05/05 12:22:31;;;;;;;;;;;23.60;41.50;;;;;;1513962;78;1191;-66
2022/05/05 12:24:33;;;;;;;;;;;23.60;41.50;;;;;;1555794;76;717;-72
2022/05/05 12:26:39;;;;;;;;;;;23.60;41.50;;;;;;1543315;77;1947;-67
2022/05/05 12:28:52;;;;;;;;;;;23.60;41.50;;;;;;1532476;77;1181;-68
2022/05/05 12:30:54;;;;;;;;;;;23.70;41.60;;;;;;1519221;78;1627;-70
2022/05/05 12:32:55;;;;;;;;;;;23.60;41.50;;;;;;1530347;75;1230;-66
2022/05/05 12:35:04;;;;;;;;;;;23.60;41.50;;;;;;1511181;78;758;-70
2022/05/05 12:37:07;;;;;;;;;;;23.60;41.50;;;;;;1529599;76;1069;-67
2022/05/05 12:39:14;;;;;;;;;;;23.70;41.50;;;;;;1523186;77;672;-69
2022/05/05 12:41:16;;;;;;;;;;;23.70;41.50;;;;;;1521268;78;768;-68
2022/05/05 12:43:21;;;;;;;;;;;23.70;41.50;;;;;;1547333;76;1108;-66
2022/05/05 12:45:27;;;;;;;;;;;23.70;41.50;;;;;;1523832;77;1905;-67
2022/05/05 12:47:28;;;;;;;;;;;23.70;41.50;;;;;;1526043;77;712;-67
2022/05/05 12:49:35;;;;;;;;;;;23.70;41.50;;;;;;1525178;77;1555;-68
2022/05/05 12:51:39;;;;;;;;;;;23.70;41.50;;;;;;1530842;76;1815;-68
2022/05/05 13:00:41;;;;;;;;;;;23.60;41.40;;;;;;1525168;76;1627;-62
2022/05/05 13:02:43;;;;;;;;;;;23.70;41.50;;;;;;1527250;77;1185;-61